Time;durP1;ratioP1;P1;durP2;ratioP2;P2;SDS_P1;SDS_P2;PMS_P1;PMS_P2;Temp;Humidity;BMP_temperature;BMP_pressure;BME280_temperature;BME280_humidity;BME280_pressure;Samples;Min_cycle;Max_cycle;Signal;HPM_P1;HPM_P2
2024/04/12 00:01:12;;;;;;;13.88;7.00;;;;;;;;;;5401938;26;20014;-64
2024/04/12 00:03:41;;;;;;;14.00;7.80;;;;;;;;;;5387926;26;20017;-64
2024/04/12 00:06:15;;;;;;;16.67;7.43;;;;;;;;;;5387314;25;20117;-63
2024/04/12 00:08:47;;;;;;;18.20;7.53;;;;;;;;;;5399927;26;20003;-63
2024/04/12 00:11:16;;;;;;;14.93;7.32;;;;;;;;;;5369859;26;20054;-64
2024/04/12 00:13:46;;;;;;;13.55;7.15;;;;;;;;;;5358109;26;20059;-64
2024/04/12 00:16:12;;;;;;;14.13;7.05;;;;;;;;;;5356691;26;20013;-64
2024/04/12 00:18:44;;;;;;;13.65;6.72;;;;;;;;;;5358369;26;20004;-64
2024/04/12 00:21:10;;;;;;;18.20;8.27;;;;;;;;;;5367573;26;20014;-64
2024/04/12 00:23:39;;;;;;;16.13;7.35;;;;;;;;;;5379175;26;20078;-64
2024/04/12 00:26:11;;;;;;;18.27;8.02;;;;;;;;;;5385530;26;20035;-65
2024/04/12 00:28:41;;;;;;;14.63;7.05;;;;;;;;;;5388615;26;20018;-64
2024/04/12 00:31:13;;;;;;;16.90;8.18;;;;;;;;;;5346970;26;20060;-64
2024/04/12 00:33:41;;;;;;;17.13;7.53;;;;;;;;;;5379298;26;20007;-64
2024/04/12 00:36:07;;;;;;;;;;;;;;;;;;5385710;26;20003;-66
2024/04/12 00:38:41;;;;;;;17.15;7.38;;;;;;;;;;5394375;26;19925;-65
2024/04/12 00:41:13;;;;;;;12.70;7.10;;;;;;;;;;5412154;26;20046;-66
2024/04/12 00:43:45;;;;;;;17.55;7.78;;;;;;;;;;5389454;26;19999;-66
2024/04/12 00:46:14;;;;;;;14.48;7.18;;;;;;;;;;5386937;26;20015;-66
2024/04/12 00:48:43;;;;;;;17.77;7.60;;;;;;;;;;5377309;26;20038;-66
2024/04/12 00:51:09;;;;;;;16.77;7.85;;;;;;;;;;5349546;26;20000;-66
2024/04/12 00:53:40;;;;;;;17.75;8.27;;;;;;;;;;5343798;26;20000;-66
2024/04/12 00:56:09;;;;;;;18.55;8.15;;;;;;;;;;5349612;26;20012;-66
2024/04/12 00:58:41;;;;;;;;;;;;;;;;;;5344188;26;20012;-67
2024/04/12 01:01:11;;;;;;;15.00;7.60;;;;;;;;;;5353293;26;19926;-66
2024/04/12 01:03:45;;;;;;;15.82;7.88;;;;;;;;;;5354761;26;20081;-66
2024/04/12 01:06:16;;;;;;;18.08;8.00;;;;;;;;;;5350931;26;20004;-66
2024/04/12 01:08:46;;;;;;;20.10;8.48;;;;;;;;;;5356830;26;20066;-66
2024/04/12 01:11:13;;;;;;;19.88;8.55;;;;;;;;;;5348358;26;20093;-67
2024/04/12 01:13:46;;;;;;;20.33;9.85;;;;;;;;;;5337323;26;20005;-66
2024/04/12 01:16:11;;;;;;;17.13;7.93;;;;;;;;;;5344448;26;20000;-65
2024/04/12 01:18:42;;;;;;;17.25;8.00;;;;;;;;;;5338994;26;20012;-64
2024/04/12 01:21:11;;;;;;;12.80;6.28;;;;;;;;;;5334521;26;20091;-65
2024/04/12 01:23:42;;;;;;;9.48;4.90;;;;;;;;;;5343699;26;20005;-65
2024/04/12 01:26:11;;;;;;;8.80;4.22;;;;;;;;;;5345016;26;20064;-65
2024/04/12 01:28:42;;;;;;;10.13;4.45;;;;;;;;;;5326963;26;20005;-64
2024/04/12 01:31:08;;;;;;;8.30;4.18;;;;;;;;;;5326304;26;20063;-64
2024/04/12 01:33:36;;;;;;;8.45;4.20;;;;;;;;;;5341943;26;20037;-65
2024/04/12 01:36:05;;;;;;;;;;;;;;;;;;5333790;26;20005;-65
2024/04/12 01:38:36;;;;;;;8.95;3.55;;;;;;;;;;5341795;26;19925;-64
2024/04/12 01:41:05;;;;;;;8.80;4.10;;;;;;;;;;5378043;26;20007;-65
2024/04/12 01:43:36;;;;;;;7.60;3.90;;;;;;;;;;5382344;26;20000;-65
2024/04/12 01:46:07;;;;;;;8.40;4.03;;;;;;;;;;5387744;26;19996;-65
2024/04/12 01:48:36;;;;;;;8.20;4.00;;;;;;;;;;5382869;26;20026;-65
2024/04/12 01:51:02;;;;;;;;;;;;;;;;;;5394387;26;20006;-65
2024/04/12 01:53:36;;;;;;;6.70;3.38;;;;;;;;;;5416762;26;19948;-65
2024/04/12 01:56:03;;;;;;;7.13;3.53;;;;;;;;;;5363911;26;19996;-65
2024/04/12 01:58:34;;;;;;;7.78;3.65;;;;;;;;;;5392673;26;20003;-64
2024/04/12 02:01:04;;;;;;;6.63;3.50;;;;;;;;;;5350767;26;20007;-64
2024/04/12 02:03:34;;;;;;;9.77;3.72;;;;;;;;;;5386913;26;20988;-64
2024/04/12 02:06:04;;;;;;;6.50;3.38;;;;;;;;;;5387135;26;20008;-63
2024/04/12 02:08:35;;;;;;;7.15;3.72;;;;;;;;;;5360867;26;20048;-65
2024/04/12 02:11:05;;;;;;;7.95;3.20;;;;;;;;;;5371941;26;20011;-65
2024/04/12 02:13:38;;;;;;;7.93;3.38;;;;;;;;;;5345063;26;20913;-64
2024/04/12 02:16:10;;;;;;;6.68;3.33;;;;;;;;;;5357010;26;19997;-64
2024/04/12 02:18:41;;;;;;;5.90;3.22;;;;;;;;;;5347032;26;20077;-64
2024/04/12 02:21:10;;;;;;;7.20;3.60;;;;;;;;;;5302457;26;20024;-67
2024/04/12 02:23:40;;;;;;;7.40;3.60;;;;;;;;;;5360749;26;20063;-64
2024/04/12 02:26:08;;;;;;;6.60;3.28;;;;;;;;;;5381320;26;20008;-66
2024/04/12 02:28:37;;;;;;;6.80;3.47;;;;;;;;;;5382647;26;20081;-64
2024/04/12 02:31:08;;;;;;;8.93;3.88;;;;;;;;;;5376284;26;20006;-64
2024/04/12 02:33:42;;;;;;;6.68;3.50;;;;;;;;;;5427984;26;20008;-64
2024/04/12 02:36:11;;;;;;;6.40;3.47;;;;;;;;;;5390996;25;20122;-64
2024/04/12 02:38:41;;;;;;;6.88;3.35;;;;;;;;;;5391359;26;20003;-64
2024/04/12 02:41:13;;;;;;;7.07;3.72;;;;;;;;;;5366015;26;20065;-64
2024/04/12 02:43:42;;;;;;;6.68;3.42;;;;;;;;;;5353339;26;20016;-64
2024/04/12 02:46:10;;;;;;;6.68;3.67;;;;;;;;;;5349915;26;20000;-64
2024/04/12 02:48:43;;;;;;;8.30;3.92;;;;;;;;;;5344887;26;20001;-64
2024/04/12 02:51:12;;;;;;;8.25;4.18;;;;;;;;;;5346891;26;20135;-65
2024/04/12 02:53:42;;;;;;;9.68;4.75;;;;;;;;;;5349390;26;20008;-64
2024/04/12 02:56:11;;;;;;;9.00;4.63;;;;;;;;;;5332692;26;20016;-64
2024/04/12 02:58:41;;;;;;;;;;;;;;;;;;5331218;26;20000;-65
2024/04/12 03:01:10;;;;;;;12.55;5.07;;;;;;;;;;5315662;26;19931;-65
2024/04/12 03:03:45;;;;;;;;;;;;;;;;;;5358767;26;20077;-64
2024/04/12 03:06:11;;;;;;;11.13;5.50;;;;;;;;;;5356569;26;19934;-64
2024/04/12 03:08:40;;;;;;;13.98;6.55;;;;;;;;;;5335216;26;20001;-64
2024/04/12 03:11:14;;;;;;;10.25;5.68;;;;;;;;;;5352020;26;20103;-65
2024/04/12 03:13:44;;;;;;;14.48;7.07;;;;;;;;;;5357228;26;20008;-64
2024/04/12 03:16:13;;;;;;;12.77;6.57;;;;;;;;;;5357752;26;20008;-64
2024/04/12 03:18:45;;;;;;;13.27;6.70;;;;;;;;;;5338649;26;20009;-64
2024/04/12 03:21:13;;;;;;;16.50;7.15;;;;;;;;;;5312347;26;19996;-64
2024/04/12 03:23:43;;;;;;;15.63;6.82;;;;;;;;;;5383678;26;19999;-64
2024/04/12 03:26:10;;;;;;;11.90;6.10;;;;;;;;;;5384584;26;20129;-64
2024/04/12 03:28:39;;;;;;;12.65;5.97;;;;;;;;;;5392620;26;20089;-64
2024/04/12 03:31:07;;;;;;;12.15;5.68;;;;;;;;;;5352891;26;20002;-63
2024/04/12 03:33:42;;;;;;;10.73;5.40;;;;;;;;;;5381217;26;20003;-64
2024/04/12 03:36:26;;;;;;;9.23;4.25;;;;;;;;;;5382705;26;20011;-63
2024/04/12 03:39:24;;;;;;;10.75;4.75;;;;;;;;;;5394478;26;20003;-64
2024/04/12 03:41:43;;;;;;;10.73;4.18;;;;;;;;;;5369429;26;19999;-63
2024/04/12 03:44:13;;;;;;;8.93;4.00;;;;;;;;;;5395471;26;20117;-64
2024/04/12 03:46:40;;;;;;;9.75;4.32;;;;;;;;;;5387917;26;20049;-64
2024/04/12 03:49:13;;;;;;;8.95;4.00;;;;;;;;;;5372925;26;20165;-64
2024/04/12 03:51:46;;;;;;;8.50;4.13;;;;;;;;;;5390685;26;20000;-64
2024/04/12 03:54:17;;;;;;;8.50;3.67;;;;;;;;;;5388816;26;20004;-64
2024/04/12 03:56:44;;;;;;;7.75;4.00;;;;;;;;;;5382870;26;20023;-64
2024/04/12 03:59:12;;;;;;;7.88;3.72;;;;;;;;;;5380667;26;20071;-64
2024/04/12 04:01:44;;;;;;;8.65;4.10;;;;;;;;;;5351786;26;19999;-63
2024/04/12 04:04:17;;;;;;;7.97;3.67;;;;;;;;;;5394553;26;20007;-64
2024/04/12 04:06:46;;;;;;;8.32;4.00;;;;;;;;;;5395896;26;20007;-63
2024/04/12 04:09:19;;;;;;;7.80;3.50;;;;;;;;;;5373565;26;20004;-64
2024/04/12 04:11:48;;;;;;;9.25;4.10;;;;;;;;;;5391558;26;20175;-65
2024/04/12 04:14:19;;;;;;;9.45;4.63;;;;;;;;;;5373381;26;20053;-64
2024/04/12 04:16:49;;;;;;;9.40;4.50;;;;;;;;;;5392845;26;20004;-64
2024/04/12 04:19:17;;;;;;;10.05;4.80;;;;;;;;;;5386833;26;20044;-65
2024/04/12 04:21:48;;;;;;;11.43;5.32;;;;;;;;;;5388267;26;20028;-64
2024/04/12 04:24:14;;;;;;;10.23;5.15;;;;;;;;;;5367153;26;20004;-63
2024/04/12 04:26:44;;;;;;;13.82;5.50;;;;;;;;;;5381896;26;20008;-64
2024/04/12 04:29:09;;;;;;;14.23;6.45;;;;;;;;;;5374130;26;19999;-64
2024/04/12 04:31:49;;;;;;;15.13;6.63;;;;;;;;;;5381594;26;20008;-65
2024/04/12 04:34:15;;;;;;;12.13;5.75;;;;;;;;;;5388185;26;20090;-64
2024/04/12 04:36:55;;;;;;;11.33;5.57;;;;;;;;;;5364132;26;20019;-65
2024/04/12 04:39:23;;;;;;;9.98;5.05;;;;;;;;;;5389667;26;20647;-64
2024/04/12 04:41:52;;;;;;;12.47;5.83;;;;;;;;;;5384628;26;19996;-64
2024/04/12 04:44:18;;;;;;;11.13;5.70;;;;;;;;;;5393074;26;20012;-64
2024/04/12 04:46:48;;;;;;;15.73;5.63;;;;;;;;;;5392917;26;20111;-63
2024/04/12 04:49:15;;;;;;;12.63;5.75;;;;;;;;;;5375639;26;19999;-65
2024/04/12 04:51:45;;;;;;;16.13;6.53;;;;;;;;;;5361488;26;20004;-64
2024/04/12 04:54:14;;;;;;;24.02;10.80;;;;;;;;;;5386427;26;20000;-65
2024/04/12 04:56:43;;;;;;;25.33;10.57;;;;;;;;;;5392493;26;20015;-64
2024/04/12 04:59:16;;;;;;;;;;;;;;;;;;5372914;26;20041;-65
2024/04/12 05:01:48;;;;;;;12.50;5.03;;;;;;;;;;5372145;26;19932;-65
2024/04/12 05:04:15;;;;;;;12.98;6.03;;;;;;;;;;5388743;26;20011;-64
2024/04/12 05:06:44;;;;;;;12.90;5.78;;;;;;;;;;5370808;26;20040;-64
2024/04/12 05:09:12;;;;;;;;;;;;;;;;;;5355464;26;20000;-65
2024/04/12 05:11:44;;;;;;;10.38;4.57;;;;;;;;;;5363760;26;19926;-65
2024/04/12 05:14:13;;;;;;;11.07;5.45;;;;;;;;;;5370065;26;20012;-64
2024/04/12 05:16:43;;;;;;;16.83;7.50;;;;;;;;;;5375693;26;20000;-64
2024/04/12 05:19:09;;;;;;;13.07;6.25;;;;;;;;;;5369628;26;20010;-63
2024/04/12 05:21:38;;;;;;;11.40;5.60;;;;;;;;;;5351368;26;20068;-64
2024/04/12 05:24:09;;;;;;;13.40;6.07;;;;;;;;;;5416996;26;20004;-64
2024/04/12 05:26:41;;;;;;;13.73;6.20;;;;;;;;;;5378984;26;20048;-64
2024/04/12 05:29:12;;;;;;;13.65;6.38;;;;;;;;;;5375905;26;20004;-64
2024/04/12 05:31:43;;;;;;;20.17;7.88;;;;;;;;;;5355768;26;20028;-63
2024/04/12 05:34:12;;;;;;;25.35;11.15;;;;;;;;;;5330809;26;20009;-64
2024/04/12 05:36:41;;;;;;;;;;;;;;;;;;5341570;26;20001;-63
2024/04/12 05:39:08;;;;;;;12.85;5.72;;;;;;;;;;5356664;26;19925;-65
2024/04/12 05:41:39;;;;;;;11.18;5.47;;;;;;;;;;5330941;26;20019;-65
2024/04/12 05:44:06;;;;;;;13.40;5.68;;;;;;;;;;5386920;26;20031;-63
2024/04/12 05:46:39;;;;;;;13.45;6.70;;;;;;;;;;5387295;26;20014;-63
2024/04/12 05:49:09;;;;;;;13.13;6.70;;;;;;;;;;5383270;26;20004;-63
2024/04/12 05:51:39;;;;;;;11.80;5.50;;;;;;;;;;5349726;26;20008;-62
2024/04/12 05:54:10;;;;;;;14.63;5.40;;;;;;;;;;5363094;26;20069;-63
2024/04/12 05:56:41;;;;;;;9.95;4.97;;;;;;;;;;5372430;26;20004;-64
2024/04/12 05:59:13;;;;;;;12.38;5.07;;;;;;;;;;5366747;26;20004;-64
2024/04/12 06:01:46;;;;;;;11.55;5.22;;;;;;;;;;5371155;26;20019;-63
2024/04/12 06:04:12;;;;;;;10.10;4.93;;;;;;;;;;5365692;26;19999;-63
2024/04/12 06:06:42;;;;;;;13.63;5.90;;;;;;;;;;5393374;26;20014;-64
2024/04/12 06:09:19;;;;;;;11.80;5.47;;;;;;;;;;5391767;26;20004;-63
2024/04/12 06:11:52;;;;;;;15.27;5.70;;;;;;;;;;5379099;26;20002;-63
2024/04/12 06:14:20;;;;;;;13.52;5.68;;;;;;;;;;5408210;26;19999;-64
2024/04/12 06:16:55;;;;;;;11.68;5.55;;;;;;;;;;5384770;26;20008;-64
2024/04/12 06:19:21;;;;;;;14.80;6.13;;;;;;;;;;5379597;26;20000;-64
2024/04/12 06:21:50;;;;;;;16.70;6.10;;;;;;;;;;5386702;26;20047;-64
2024/04/12 06:24:26;;;;;;;12.02;5.15;;;;;;;;;;5391934;26;20004;-64
2024/04/12 06:26:55;;;;;;;15.25;6.45;;;;;;;;;;5392325;26;20028;-63
2024/04/12 06:29:22;;;;;;;19.65;6.88;;;;;;;;;;5381753;26;20298;-64
2024/04/12 06:31:53;;;;;;;14.95;6.40;;;;;;;;;;5374962;26;20002;-64
2024/04/12 06:34:20;;;;;;;17.20;6.45;;;;;;;;;;5411644;26;20014;-64
2024/04/12 06:36:55;;;;;;;13.60;6.53;;;;;;;;;;5392787;26;20058;-63
2024/04/12 06:39:26;;;;;;;16.38;6.15;;;;;;;;;;5383688;26;20054;-63
2024/04/12 06:41:54;;;;;;;18.17;6.68;;;;;;;;;;5357622;26;21094;-63
2024/04/12 06:44:20;;;;;;;14.68;6.32;;;;;;;;;;5377259;26;20078;-64
2024/04/12 06:46:58;;;;;;;20.98;6.72;;;;;;;;;;5382415;26;20016;-64
2024/04/12 06:49:27;;;;;;;19.53;6.37;;;;;;;;;;5381388;26;20008;-64
2024/04/12 06:52:20;;;;;;;14.02;6.55;;;;;;;;;;5360387;26;20263;-63
2024/04/12 06:54:47;;;;;;;14.77;6.32;;;;;;;;;;5376334;26;20026;-64
2024/04/12 06:57:21;;;;;;;14.38;6.65;;;;;;;;;;5372307;26;20000;-63
2024/04/12 06:59:53;;;;;;;13.75;6.25;;;;;;;;;;5390994;26;19999;-63
2024/04/12 07:02:29;;;;;;;15.02;6.25;;;;;;;;;;5352385;26;20108;-63
2024/04/12 07:04:56;;;;;;;16.52;6.60;;;;;;;;;;5343648;26;20330;-64
2024/04/12 07:07:28;;;;;;;18.30;6.60;;;;;;;;;;5348556;26;20000;-63
2024/04/12 07:09:58;;;;;;;14.88;6.65;;;;;;;;;;5350134;26;20008;-64
2024/04/12 07:12:27;;;;;;;17.83;6.82;;;;;;;;;;5369185;26;20014;-65
2024/04/12 07:14:56;;;;;;;19.40;7.70;;;;;;;;;;5374003;26;20048;-65
2024/04/12 07:17:28;;;;;;;16.42;6.72;;;;;;;;;;5383165;26;20063;-66
2024/04/12 07:19:57;;;;;;;25.70;11.18;;;;;;;;;;5384109;26;20004;-64
2024/04/12 07:22:27;;;;;;;;;;;;;;;;;;5375592;26;20015;-63
2024/04/12 07:25:01;;;;;;;14.23;5.55;;;;;;;;;;5388137;26;19925;-64
2024/04/12 07:27:27;;;;;;;16.92;5.88;;;;;;;;;;5389225;26;20018;-63
2024/04/12 07:29:57;;;;;;;16.30;6.28;;;;;;;;;;5381886;26;20000;-64
2024/04/12 07:32:33;;;;;;;14.98;5.78;;;;;;;;;;5323766;26;20008;-63
2024/04/12 07:35:16;;;;;;;15.63;5.72;;;;;;;;;;5355449;26;20016;-66
2024/04/12 07:37:42;;;;;;;13.40;5.97;;;;;;;;;;5382863;26;20043;-65
2024/04/12 07:40:24;;;;;;;15.95;6.15;;;;;;;;;;5377014;26;20012;-64
2024/04/12 07:42:52;;;;;;;14.00;6.07;;;;;;;;;;5390281;26;20070;-64
2024/04/12 07:45:23;;;;;;;18.45;5.70;;;;;;;;;;5388707;26;20023;-64
2024/04/12 07:47:52;;;;;;;13.05;6.28;;;;;;;;;;5384347;26;20015;-64
2024/04/12 07:50:28;;;;;;;16.73;6.30;;;;;;;;;;5377497;26;20014;-63
2024/04/12 07:53:10;;;;;;;15.63;5.82;;;;;;;;;;5355029;26;20011;-64
2024/04/12 07:55:39;;;;;;;16.85;6.10;;;;;;;;;;5390150;26;20064;-64
2024/04/12 07:58:09;;;;;;;16.45;6.40;;;;;;;;;;5396214;26;20018;-64
2024/04/12 08:00:45;;;;;;;15.52;6.30;;;;;;;;;;5392727;26;20100;-63
2024/04/12 08:03:15;;;;;;;14.23;6.10;;;;;;;;;;5272727;26;20054;-64
2024/04/12 08:08:31;;;;;;;20.90;6.07;;;;;;;;;;5393208;26;20014;-64
2024/04/12 08:11:10;;;;;;;16.00;6.57;;;;;;;;;;5377696;26;20004;-64
2024/04/12 08:13:44;;;;;;;18.45;6.20;;;;;;;;;;5351046;26;20021;-64
2024/04/12 08:16:14;;;;;;;16.85;6.40;;;;;;;;;;5358118;26;20024;-64
2024/04/12 08:18:46;;;;;;;15.07;6.70;;;;;;;;;;5358434;26;20023;-64
2024/04/12 08:21:12;;;;;;;14.88;6.25;;;;;;;;;;5330699;26;20101;-64
2024/04/12 08:23:43;;;;;;;18.50;5.60;;;;;;;;;;5362093;26;20012;-63
2024/04/12 08:26:11;;;;;;;13.20;5.90;;;;;;;;;;5360578;26;20004;-64
2024/04/12 08:28:41;;;;;;;19.67;6.25;;;;;;;;;;5347458;26;20016;-63
2024/04/12 08:31:06;;;;;;;14.52;5.95;;;;;;;;;;5347965;26;22535;-63
2024/04/12 08:33:35;;;;;;;14.57;6.00;;;;;;;;;;5354989;26;20023;-64
2024/04/12 08:36:10;;;;;;;17.70;5.13;;;;;;;;;;5340321;26;20080;-64
2024/04/12 08:38:53;;;;;;;17.73;6.40;;;;;;;;;;5332946;26;20001;-64
2024/04/12 08:41:31;;;;;;;18.55;5.75;;;;;;;;;;5331903;26;20290;-64
2024/04/12 08:43:58;;;;;;;16.02;5.68;;;;;;;;;;5338528;26;20127;-64
2024/04/12 08:46:33;;;;;;;19.63;5.95;;;;;;;;;;5334414;26;20013;-64
2024/04/12 08:49:03;;;;;;;19.67;6.32;;;;;;;;;;5351378;26;20000;-64
2024/04/12 08:51:36;;;;;;;13.55;5.60;;;;;;;;;;5317230;26;20091;-64
2024/04/12 08:54:04;;;;;;;15.85;6.38;;;;;;;;;;5230668;27;20058;-64
2024/04/12 08:56:34;;;;;;;13.18;5.47;;;;;;;;;;5252864;27;20012;-64
2024/04/12 08:59:05;;;;;;;23.50;6.53;;;;;;;;;;5250594;27;20007;-64
2024/04/12 09:01:37;;;;;;;20.02;5.68;;;;;;;;;;5299763;26;20004;-64
2024/04/12 09:04:04;;;;;;;15.23;5.30;;;;;;;;;;5349291;26;20026;-64
2024/04/12 09:06:38;;;;;;;14.23;5.57;;;;;;;;;;5349232;26;20101;-64
2024/04/12 09:09:04;;;;;;;13.63;5.28;;;;;;;;;;5333206;26;20016;-65
2024/04/12 09:11:33;;;;;;;19.17;4.72;;;;;;;;;;5316756;26;19997;-65
2024/04/12 09:14:08;;;;;;;15.35;5.75;;;;;;;;;;5349582;26;20011;-64
2024/04/12 09:16:44;;;;;;;18.48;5.82;;;;;;;;;;5357630;26;20014;-67
2024/04/12 09:19:14;;;;;;;14.98;5.65;;;;;;;;;;5353426;26;20004;-66
2024/04/12 09:21:58;;;;;;;18.30;6.22;;;;;;;;;;5333980;26;20027;-66
2024/04/12 09:24:31;;;;;;;13.38;5.60;;;;;;;;;;5344470;26;20009;-66
2024/04/12 09:27:09;;;;;;;18.40;5.75;;;;;;;;;;5351596;26;20000;-65
2024/04/12 09:29:43;;;;;;;15.10;4.93;;;;;;;;;;5357715;26;20016;-66
2024/04/12 09:34:58;;;;;;;17.40;5.35;;;;;;;;;;5335794;26;20012;-66
2024/04/12 09:37:38;;;;;;;15.88;5.65;;;;;;;;;;5330923;26;20014;-66
2024/04/12 09:40:16;;;;;;;20.85;6.35;;;;;;;;;;5347761;26;20018;-65
2024/04/12 09:43:21;;;;;;;;;;;;;;;;;;5327340;26;20008;-65
2024/04/12 09:45:49;;;;;;;11.90;4.78;;;;;;;;;;5355885;26;19925;-67
2024/04/12 10:38:44;;;;;;;17.58;5.50;;;;;;;;;;5391690;26;20023;-64
2024/04/12 10:41:14;;;;;;;9.70;4.20;;;;;;;;;;5383112;25;19999;-65
2024/04/12 10:43:46;;;;;;;16.17;5.25;;;;;;;;;;5356426;26;20004;-64
2024/04/12 10:46:15;;;;;;;12.82;3.72;;;;;;;;;;5349001;26;20015;-65
2024/04/12 10:48:44;;;;;;;14.15;4.85;;;;;;;;;;5362115;26;20004;-65
2024/04/12 10:51:14;;;;;;;10.43;4.30;;;;;;;;;;5335314;26;20003;-64
2024/04/12 10:53:41;;;;;;;13.95;4.45;;;;;;;;;;5432950;26;20010;-64
2024/04/12 10:56:11;;;;;;;15.50;4.28;;;;;;;;;;5392216;26;20060;-65
2024/04/12 10:58:47;;;;;;;14.30;5.25;;;;;;;;;;5382458;26;20101;-64
2024/04/12 11:01:16;;;;;;;11.43;4.07;;;;;;;;;;5381673;26;19999;-65
2024/04/12 11:03:44;;;;;;;10.88;3.53;;;;;;;;;;5443126;26;19999;-65
2024/04/12 11:06:21;;;;;;;12.57;3.97;;;;;;;;;;5395719;26;19997;-66
2024/04/12 11:08:51;;;;;;;7.82;3.53;;;;;;;;;;5397573;26;19999;-65
2024/04/12 11:11:26;;;;;;;10.50;3.80;;;;;;;;;;5358667;26;20008;-66
2024/04/12 11:13:55;;;;;;;14.60;4.57;;;;;;;;;;5385506;26;20018;-64
2024/04/12 11:33:04;;;;;;;12.65;3.13;;;;;;;;;;5277871;26;20627;-65
2024/04/12 11:35:34;;;;;;;8.57;3.38;;;;;;;;;;5356796;26;20008;-65
2024/04/12 11:38:13;;;;;;;9.70;3.20;;;;;;;;;;5374335;26;20028;-65
2024/04/12 11:40:40;;;;;;;13.02;3.78;;;;;;;;;;5381680;26;20064;-65
2024/04/12 11:43:09;;;;;;;7.88;2.80;;;;;;;;;;5425021;26;20076;-64
2024/04/12 11:45:41;;;;;;;9.95;3.00;;;;;;;;;;5394412;26;20000;-64
2024/04/12 11:48:14;;;;;;;6.30;2.38;;;;;;;;;;5392316;26;20008;-65
2024/04/12 11:50:41;;;;;;;8.68;2.38;;;;;;;;;;5392749;26;20049;-64
2024/04/12 11:53:10;;;;;;;5.32;2.15;;;;;;;;;;5341298;26;20008;-64
2024/04/12 11:55:43;;;;;;;10.77;2.97;;;;;;;;;;5331179;26;20004;-66
2024/04/12 11:58:10;;;;;;;8.88;2.90;;;;;;;;;;5355616;26;20016;-64
2024/04/12 12:00:43;;;;;;;9.30;2.92;;;;;;;;;;5358367;26;20023;-66
2024/04/12 12:03:15;;;;;;;9.93;3.55;;;;;;;;;;5363474;26;20008;-64
2024/04/12 12:05:47;;;;;;;9.98;2.60;;;;;;;;;;5375351;26;19999;-65
2024/04/12 12:08:13;;;;;;;7.07;2.40;;;;;;;;;;5375989;26;20004;-64
2024/04/12 12:10:44;;;;;;;8.60;2.30;;;;;;;;;;5394724;26;20010;-66
2024/04/12 12:13:10;;;;;;;8.38;2.38;;;;;;;;;;5399767;26;20042;-65
2024/04/12 12:15:42;;;;;;;8.18;2.67;;;;;;;;;;5399746;26;20007;-65
2024/04/12 12:18:09;;;;;;;5.10;2.38;;;;;;;;;;5381843;26;20000;-66
2024/04/12 12:20:38;;;;;;;10.05;2.72;;;;;;;;;;5382899;26;20003;-65
2024/04/12 12:23:05;;;;;;;;;;;;;;;;;;5354840;26;20102;-64
2024/04/12 12:25:33;;;;;;;6.40;2.45;;;;;;;;;;5352272;26;19938;-65
2024/04/12 12:27:59;;;;;;;;;;;;;;;;;;5357359;26;20000;-66
2024/04/12 12:30:28;;;;;;;6.03;2.13;;;;;;;;;;5359901;26;19993;-65
2024/04/12 12:32:57;;;;;;;4.80;1.70;;;;;;;;;;5349918;26;20104;-65
2024/04/12 12:35:25;;;;;;;;;;;;;;;;;;5343564;26;20100;-66
2024/04/12 12:37:51;;;;;;;6.75;1.60;;;;;;;;;;5358239;26;20039;-63
2024/04/12 12:40:21;;;;;;;3.95;1.48;;;;;;;;;;5359448;26;20000;-65
2024/04/12 12:42:48;;;;;;;6.63;1.90;;;;;;;;;;5343606;26;20172;-65
2024/04/12 12:45:20;;;;;;;7.60;1.88;;;;;;;;;;5362212;26;20012;-67
2024/04/12 12:47:47;;;;;;;;;;;;;;;;;;5372342;26;20048;-64
2024/04/12 12:50:24;;;;;;;5.35;1.80;;;;;;;;;;5394651;26;20291;-65
2024/04/12 12:52:50;;;;;;;5.55;1.92;;;;;;;;;;5387819;26;20031;-64
2024/04/12 12:55:23;;;;;;;8.40;2.08;;;;;;;;;;5396599;26;20050;-65
2024/04/12 12:57:49;;;;;;;9.13;2.20;;;;;;;;;;5369703;26;20081;-65
2024/04/12 13:00:22;;;;;;;10.23;2.55;;;;;;;;;;5387355;26;20018;-63
2024/04/12 13:02:50;;;;;;;12.15;2.15;;;;;;;;;;5409549;26;20010;-63
2024/04/12 13:05:30;;;;;;;5.22;1.80;;;;;;;;;;5411144;26;20047;-64
2024/04/12 13:07:56;;;;;;;5.85;2.10;;;;;;;;;;5383336;26;20012;-66
2024/04/12 13:10:25;;;;;;;4.18;1.60;;;;;;;;;;5384526;26;19999;-65
2024/04/12 13:12:51;;;;;;;;;;;;;;;;;;5377546;26;20100;-63
2024/04/12 13:15:22;;;;;;;4.57;1.27;;;;;;;;;;5395694;26;19925;-67
2024/04/12 13:17:49;;;;;;;3.65;1.48;;;;;;;;;;5384040;26;20004;-65
2024/04/12 13:20:23;;;;;;;7.40;1.42;;;;;;;;;;5390299;26;20349;-62
2024/04/12 13:22:49;;;;;;;2.80;1.02;;;;;;;;;;5377754;26;19999;-64
2024/04/12 13:25:18;;;;;;;2.97;0.98;;;;;;;;;;5384169;26;20023;-64
2024/04/12 13:27:47;;;;;;;3.22;0.98;;;;;;;;;;5392665;26;20104;-64
2024/04/12 13:30:17;;;;;;;2.80;1.20;;;;;;;;;;5388334;26;20011;-63
2024/04/12 13:32:43;;;;;;;1.38;0.90;;;;;;;;;;5363290;26;20003;-65
2024/04/12 13:35:21;;;;;;;4.78;0.95;;;;;;;;;;5383050;26;20011;-65
2024/04/12 13:37:49;;;;;;;2.08;1.00;;;;;;;;;;5364347;26;20012;-64
2024/04/12 13:40:18;;;;;;;3.80;1.00;;;;;;;;;;5378438;26;20015;-64
2024/04/12 13:42:45;;;;;;;2.13;0.90;;;;;;;;;;5402573;26;19998;-64
2024/04/12 13:50:55;;;;;;;3.00;1.10;;;;;;;;;;5364594;26;20081;-65
2024/04/12 13:53:32;;;;;;;3.63;1.08;;;;;;;;;;5336460;26;20031;-63
2024/04/12 13:56:19;;;;;;;2.88;1.25;;;;;;;;;;5343383;26;20063;-65
2024/04/12 13:58:53;;;;;;;4.55;1.40;;;;;;;;;;5333270;26;20000;-64
2024/04/12 14:01:23;;;;;;;3.67;1.55;;;;;;;;;;5339466;26;20004;-63
2024/04/12 14:03:51;;;;;;;3.38;1.30;;;;;;;;;;5287443;26;20027;-63
2024/04/12 14:06:23;;;;;;;7.55;2.00;;;;;;;;;;5355143;26;20000;-65
2024/04/12 14:08:55;;;;;;;6.32;1.70;;;;;;;;;;5340542;26;20001;-64
2024/04/12 14:11:24;;;;;;;6.32;1.50;;;;;;;;;;5344602;26;20066;-62
2024/04/12 14:13:50;;;;;;;5.47;1.60;;;;;;;;;;5344045;26;20085;-65
2024/04/12 14:16:19;;;;;;;6.88;1.33;;;;;;;;;;5352062;26;20004;-66
2024/04/12 14:18:47;;;;;;;2.00;1.00;;;;;;;;;;5340493;26;20000;-67
2024/04/12 14:21:18;;;;;;;;;;;;;;;;;;5342124;26;20023;-67
2024/04/12 14:23:46;;;;;;;4.78;1.75;;;;;;;;;;5333298;26;19930;-67
2024/04/12 14:26:18;;;;;;;5.97;1.55;;;;;;;;;;5346334;26;20027;-64
2024/04/12 14:28:47;;;;;;;3.25;1.35;;;;;;;;;;5349094;26;20110;-63
2024/04/12 14:31:16;;;;;;;3.45;1.10;;;;;;;;;;5347854;26;20070;-64
2024/04/12 14:33:50;;;;;;;3.00;1.40;;;;;;;;;;5346015;26;20055;-65
2024/04/12 14:36:19;;;;;;;5.70;1.50;;;;;;;;;;5333836;26;20008;-63
2024/04/12 14:38:47;;;;;;;7.60;1.38;;;;;;;;;;5334640;26;20120;-64
2024/04/12 14:41:19;;;;;;;;;;;;;;;;;;5352949;26;20015;-64
2024/04/12 14:43:45;;;;;;;4.22;1.40;;;;;;;;;;5311535;26;19932;-64
2024/04/12 14:46:14;;;;;;;2.90;1.38;;;;;;;;;;5343658;26;20040;-65
2024/04/12 14:48:42;;;;;;;3.53;1.50;;;;;;;;;;5333352;26;20000;-65
2024/04/12 14:51:13;;;;;;;;;;;;;;;;;;5336151;26;20004;-64
2024/04/12 14:53:39;;;;;;;5.60;1.13;;;;;;;;;;5345280;26;20014;-64
2024/04/12 14:56:08;;;;;;;5.43;1.52;;;;;;;;;;5333687;26;20015;-64
2024/04/12 14:58:36;;;;;;;4.10;1.20;;;;;;;;;;5342706;26;20071;-67
2024/04/12 15:01:04;;;;;;;;;;;;;;;;;;5342013;26;20020;-65
2024/04/12 15:55:56;;;;;;;0.90;0.70;;;;;;;;;;5357442;26;20008;-62
2024/04/12 16:12:15;;;;;;;2.60;0.90;;;;;;;;;;5413430;25;20085;-63
2024/04/12 16:14:45;;;;;;;3.25;1.02;;;;;;;;;;5401099;25;20281;-64
2024/04/12 16:17:14;;;;;;;2.03;0.95;;;;;;;;;;5419760;25;20006;-63
2024/04/12 16:19:43;;;;;;;2.80;1.10;;;;;;;;;;5406628;25;20012;-63
2024/04/12 16:22:09;;;;;;;2.03;1.08;;;;;;;;;;5418667;25;20035;-63
2024/04/12 16:24:40;;;;;;;3.72;1.33;;;;;;;;;;5433832;25;20018;-63
2024/04/12 16:27:09;;;;;;;1.90;0.90;;;;;;;;;;5432130;25;20013;-62
2024/04/12 16:29:35;;;;;;;1.73;1.00;;;;;;;;;;5401415;26;20003;-62
2024/04/12 16:32:05;;;;;;;4.38;1.33;;;;;;;;;;5418473;25;20037;-63
2024/04/12 16:34:31;;;;;;;2.00;0.90;;;;;;;;;;5368232;26;20004;-63
2024/04/12 16:37:00;;;;;;;3.58;1.08;;;;;;;;;;5370095;26;20010;-63
2024/04/12 16:39:26;;;;;;;3.97;1.10;;;;;;;;;;5357818;26;20019;-63
2024/04/12 16:41:59;;;;;;;1.15;0.80;;;;;;;;;;5344196;26;20000;-63
2024/04/12 16:44:26;;;;;;;2.03;1.08;;;;;;;;;;5405455;26;20058;-63
2024/04/12 16:46:54;;;;;;;4.68;1.25;;;;;;;;;;5398515;25;20073;-62
2024/04/12 16:49:20;;;;;;;1.67;1.20;;;;;;;;;;5406831;25;20238;-62
2024/04/12 16:51:53;;;;;;;2.22;1.00;;;;;;;;;;5395816;26;20012;-62
2024/04/12 16:54:23;;;;;;;5.45;1.13;;;;;;;;;;5356065;25;19996;-62
2024/04/12 16:56:51;;;;;;;5.68;1.10;;;;;;;;;;5365564;26;20008;-62
2024/04/12 16:59:19;;;;;;;4.40;1.38;;;;;;;;;;5354207;26;20072;-62
2024/04/12 17:01:47;;;;;;;;;;;;;;;;;;5353812;25;20007;-62
2024/04/12 17:04:13;;;;;;;3.83;1.20;;;;;;;;;;5345915;26;19965;-62
2024/04/12 17:06:48;;;;;;;4.75;1.10;;;;;;;;;;5343922;26;20011;-62
2024/04/12 17:09:19;;;;;;;3.28;1.00;;;;;;;;;;5333321;26;19997;-62
2024/04/12 17:11:47;;;;;;;3.40;0.90;;;;;;;;;;5339322;26;20019;-62
2024/04/12 17:14:13;;;;;;;2.67;1.02;;;;;;;;;;5359127;26;20051;-63
2024/04/12 17:16:44;;;;;;;2.95;1.10;;;;;;;;;;5373758;26;20015;-63
2024/04/12 17:19:11;;;;;;;4.95;1.55;;;;;;;;;;5362228;26;20000;-64
2024/04/12 17:21:39;;;;;;;6.82;2.53;;;;;;;;;;5387018;26;22579;-63
2024/04/12 17:24:05;;;;;;;4.60;1.75;;;;;;;;;;5398779;25;20007;-62
2024/04/12 17:26:33;;;;;;;6.30;2.72;;;;;;;;;;5379914;26;20010;-63